Observation Tools

Overcup oak Photo courtesy of Steve Baskauf, Vanderbilt University, bioimages.vanderbilt.edu.

Overcup oak (Quercus lyrata)


Plant Family: Beech (Fagaceae)
Project BudBurst Plant Group: Deciduous Trees and Shrubs

Identification Hints: Overcup oaks are found in the southeastern United States. They are commonly found in wet areas, such as lowlandsand can grow up to 66 feet tall. The leaves of the Overcup oak have rounded lobes and the shape of the entire leaf is somewhat of an elongated-lobed oval. A distinguishing feature of the Overcup oak is the acorns. In this species the acorncap covers more than half of the nut.

Did you Know? The phenology of Overcup oak helps it resist spring flooding. The leaves of Overcup oaks come out a month or more later than many other species that grow in the same areas. The flooding often kills off species whose leaves come out earlier and providing Overcucreates a competative edge for the Overcup oaks to grow.


Live Map for Overcup oak

Other years available for viewing:

Below you can view all observations that have been reported in for Overcup oak (If the map below is empty then there have not been any observations reported.)

Use the navigation buttons on the left to zoom in/out and pan around. Click on each place marker to get detail information about that observation.

Leaf/Needles/Stalk = Leaf/Needles/Stalk Flower = Flower Pollen = Pollen Fruiting = Fruiting Color = Color

--Back to Top--

close help window button

The table below displays all the data that has been submitted to Project BudBurst. By default, the data is sorted by the date on which the phenophase occurred. Clicking the up and down arrows next to each column name allows you to sort on any value. If there have been more than 10 observations submitted, you can choose how many to display at a time using the "Show __ entries" control. You can also page through the data using the previous and next buttons at the bottom right of the table.

The Search box allows you to search all of the data. Searching by date, species, phenophase, etc. is easy—just start typing and the table will immediately change to contain only observations that contain your search phrase. Do you want to see only 2012 observations? Just type "2012" in the search box. Only want to see maples? Enter "Acer." You can combine searches, too! Searching for "acer 2012" will narrow your results to only the maples that were observed in 2012 (assuming that any observations exist, of course).

Once you have your results in the order desired, you can use any of the buttons above the search box to copy the results to the clipboard; save them as a text, or spreadsheet; or even print them from your browser!

Observational data for Overcup oak:

help button
Date Contributor Common Name Species Phenophase Latitude Longitude Obs#
Sat May 01 00:00:00 GMT 2010 reynolds Overcup oak Quercus lyrata First Pollen 44.465000000000000 -93.179000000000000 10287
Wed Apr 21 00:00:00 GMT 2010 reynolds Overcup oak Quercus lyrata First Leaf 44.465000000000000 -93.179000000000000 10288
Thu Apr 29 00:00:00 GMT 2010 reynolds Overcup oak Quercus lyrata All Leaves Unfolded 44.465000000000000 -93.179000000000000 10289
Wed Apr 03 00:00:00 GMT 2013 muziguo Overcup oak Quercus lyrata Leaves Unfolding (Early) 39.165300000000000 -86.526400000000000 18483
Wed Mar 23 00:00:00 GMT 2016 juliluna Overcup oak Quercus lyrata Bud Burst 39.167960000000000 -86.513243000000000 64183
Thu Mar 10 00:00:00 GMT 2016 savannah Overcup oak Quercus lyrata Bud Burst 39.174740000000000 -86.513990000000000 64502
Thu Mar 24 00:00:00 GMT 2016 savannah Overcup oak Quercus lyrata First Leaf 39.174740000000000 -86.513990000000000 64503
Mon Oct 03 00:00:00 GMT 2016 aidanmawn Overcup oak Quercus lyrata Leaves Unfolding (Early) 42.848980000000000 -70.929500000000000 70332
Mon Oct 03 00:00:00 GMT 2016 aidanmawn Overcup oak Quercus lyrata Leaves Changing Color (Early) 42.848980000000000 -70.929500000000000 70333
Mon Oct 03 00:00:00 GMT 2016 aidanmawn Overcup oak Quercus lyrata Leaves Dropping (Early) 42.848980000000000 -70.929500000000000 70334
Mon Oct 03 00:00:00 GMT 2016 aidanmawn Overcup oak Quercus lyrata Flowers (None) 42.848980000000000 -70.929500000000000 70335
Mon Oct 03 00:00:00 GMT 2016 aidanmawn Overcup oak Quercus lyrata Fruit (None) 42.848980000000000 -70.929500000000000 70336
Mon Oct 31 00:00:00 GMT 2016 mdeleo Overcup oak Quercus lyrata 50% Color 39.173212000000000 -86.574493000000000 73348
Fri Nov 04 00:00:00 GMT 2016 mdeleo Overcup oak Quercus lyrata 50% Leaf Fall 39.173212000000000 -86.574493000000000 73349
Mon Apr 10 00:00:00 GMT 2017 harleyschool Overcup oak Quercus lyrata Leaves Unfolding (None) 43.120190000000000 -77.549770000000000 77407
Mon Apr 10 00:00:00 GMT 2017 harleyschool Overcup oak Quercus lyrata Leaves Changing Color (None) 43.120190000000000 -77.549770000000000 77408
Mon Apr 10 00:00:00 GMT 2017 harleyschool Overcup oak Quercus lyrata Leaves Dropping (None) 43.120190000000000 -77.549770000000000 77409
Mon Apr 10 00:00:00 GMT 2017 harleyschool Overcup oak Quercus lyrata Flowers (None) 43.120190000000000 -77.549770000000000 77410
Mon Apr 10 00:00:00 GMT 2017 harleyschool Overcup oak Quercus lyrata Fruit (None) 43.120190000000000 -77.549770000000000 77411
Mon Apr 10 00:00:00 GMT 2017 harleyschool Overcup oak Quercus lyrata Leaves Unfolding (None) 43.120190000000000 -77.549770000000000 77412
Mon Apr 10 00:00:00 GMT 2017 harleyschool Overcup oak Quercus lyrata Leaves Changing Color (None) 43.120190000000000 -77.549770000000000 77413
Mon Apr 10 00:00:00 GMT 2017 harleyschool Overcup oak Quercus lyrata Leaves Dropping (None) 43.120190000000000 -77.549770000000000 77414
Mon Apr 10 00:00:00 GMT 2017 harleyschool Overcup oak Quercus lyrata Flowers (None) 43.120190000000000 -77.549770000000000 77415
Mon Apr 10 00:00:00 GMT 2017 harleyschool Overcup oak Quercus lyrata Fruit (None) 43.120190000000000 -77.549770000000000 77416
Mon Apr 10 00:00:00 GMT 2017 harleyschool Overcup oak Quercus lyrata Leaves Unfolding (None) 42.843751000000000 -77.980957000000000 77422
Mon Apr 10 00:00:00 GMT 2017 harleyschool Overcup oak Quercus lyrata Leaves Changing Color (None) 42.843751000000000 -77.980957000000000 77423
Mon Apr 10 00:00:00 GMT 2017 harleyschool Overcup oak Quercus lyrata Leaves Dropping (None) 42.843751000000000 -77.980957000000000 77424
Mon Apr 10 00:00:00 GMT 2017 harleyschool Overcup oak Quercus lyrata Flowers (None) 42.843751000000000 -77.980957000000000 77425
Mon Apr 10 00:00:00 GMT 2017 harleyschool Overcup oak Quercus lyrata Fruit (None) 42.843751000000000 -77.980957000000000 77426

*All downloadable materials require the free Adobe Reader.